Time;durP1;ratioP1;P1;durP2;ratioP2;P2;SDS_P1;SDS_P2;PMS_P1;PMS_P2;Temp;Humidity;BMP_temperature;BMP_pressure;BME280_temperature;BME280_humidity;BME280_pressure;Samples;Min_cycle;Max_cycle;Signal;HPM_P1;HPM_P2
2023/05/15 00:00:36;;;;;;;;;34.50;30.00;;;;;17.69;50.51;101219.88;5031698;28;45454;-69
2023/05/15 00:03:02;;;;;;;;;35.50;31.00;;;;;17.66;50.50;101219.97;5023515;28;45360;-68
2023/05/15 00:05:27;;;;;;;;;34.00;28.75;;;;;17.63;50.42;101212.13;5022533;28;45380;-68
2023/05/15 00:07:52;;;;;;;;;33.50;30.50;;;;;17.58;50.44;101212.28;5022379;28;46020;-69
2023/05/15 00:10:18;;;;;;;;;30.25;29.25;;;;;17.61;50.52;101221.94;5022844;28;45388;-69
2023/05/15 00:12:43;;;;;;;;;31.25;27.25;;;;;17.57;50.18;101226.47;5022615;28;45154;-69
2023/05/15 00:15:09;;;;;;;;;34.50;32.00;;;;;17.53;50.57;101219.56;5022809;28;45408;-69
2023/05/15 00:17:34;;;;;;;;;31.00;27.25;;;;;17.51;50.50;101216.09;5022737;28;45957;-69
2023/05/15 00:20:00;;;;;;;;;25.75;23.25;;;;;17.48;50.59;101222.41;5021408;28;45274;-69
2023/05/15 00:22:25;;;;;;;;;34.25;29.00;;;;;17.45;50.42;101219.81;5022491;28;45305;-68
2023/05/15 00:24:51;;;;;;;;;36.00;33.00;;;;;17.41;50.57;101214.66;5022532;28;45268;-68
2023/05/15 00:27:16;;;;;;;;;32.50;29.75;;;;;17.37;50.50;101214.78;5022515;28;45907;-69
2023/05/15 00:29:42;;;;;;;;;36.25;32.25;;;;;17.34;50.42;101211.38;5022770;28;45285;-69
2023/05/15 00:32:07;;;;;;;;;28.00;26.25;;;;;17.35;50.37;101216.63;5022965;28;45202;-69
2023/05/15 00:34:32;;;;;;;;;37.75;33.75;;;;;17.32;50.68;101210.53;5022496;28;45353;-69
2023/05/15 00:36:59;;;;;;;;;32.00;29.25;;;;;17.29;50.58;101211.53;5022225;28;46034;-69
2023/05/15 00:39:24;;;;;;;;;36.75;30.75;;;;;17.28;50.66;101207.16;5021373;28;45384;-68
2023/05/15 00:41:50;;;;;;;;;41.50;33.50;;;;;17.25;50.44;101207.25;5021160;28;45407;-69
2023/05/15 00:44:18;;;;;;;;;43.25;34.25;;;;;17.24;50.39;101207.31;5022415;28;45277;-69
2023/05/15 00:46:45;;;;;;;;;37.25;33.50;;;;;17.20;50.67;101201.22;5022251;28;45221;-69
2023/05/15 00:49:12;;;;;;;;;39.00;33.50;;;;;17.19;50.74;101203.03;5021212;28;45374;-69
2023/05/15 00:51:39;;;;;;;;;39.00;33.25;;;;;17.18;50.53;101211.03;5022257;28;45451;-69
2023/05/15 00:54:06;;;;;;;;;29.50;27.00;;;;;17.13;50.64;101200.59;5022143;28;45490;-69
2023/05/15 00:56:32;;;;;;;;;35.25;30.50;;;;;17.13;50.77;101203.25;5020677;28;46135;-69
2023/05/15 00:58:59;;;;;;;;;45.50;37.50;;;;;17.08;51.01;101189.25;5022300;28;45323;-69
2023/05/15 01:01:25;;;;;;;;;45.50;37.50;;;;;17.09;50.85;101201.59;5032215;28;45553;-69
2023/05/15 01:03:50;;;;;;;;;38.50;34.50;;;;;17.05;51.02;101195.50;5021087;28;45474;-68
2023/05/15 01:06:16;;;;;;;;;39.50;33.75;;;;;17.03;50.55;101188.53;5021806;28;45905;-69
2023/05/15 01:08:44;;;;;;;;;42.75;35.25;;;;;17.04;50.38;101196.47;5021927;28;45403;-69
2023/05/15 01:11:12;;;;;;;;;46.50;38.50;;;;;17.02;50.82;101190.31;5020270;28;45427;-69
2023/05/15 01:13:37;;;;;;;;;45.25;39.00;;;;;17.01;50.91;101201.00;5020491;28;45395;-69
2023/05/15 01:16:03;;;;;;;;;45.50;36.00;;;;;16.99;50.97;101194.88;5021802;28;46448;-69
2023/05/15 01:18:31;;;;;;;;;46.00;39.00;;;;;16.95;50.92;101187.94;5020200;28;45298;-69
2023/05/15 01:21:09;;;;;;;;;42.25;37.25;;;;;16.96;50.88;101193.19;5020766;28;45285;-69
2023/05/15 01:23:37;;;;;;;;;45.00;37.75;;;;;16.91;51.25;101179.19;5021622;28;45335;-69
2023/05/15 01:26:21;;;;;;;;;51.50;40.50;;;;;16.90;50.96;101193.34;5021659;28;45435;-69
2023/05/15 01:29:23;;;;;;;;;42.75;36.50;;;;;16.88;51.12;101189.91;5020615;28;45340;-69
2023/05/15 01:31:56;;;;;;;;;49.50;40.25;;;;;16.84;51.16;101186.47;5007866;28;45585;-69
2023/05/15 01:34:26;;;;;;;;;45.50;38.00;;;;;16.86;51.24;101189.06;5021837;28;45162;-69
2023/05/15 01:36:57;;;;;;;;;48.75;39.75;;;;;16.85;51.14;101193.50;5020112;28;46726;-69
2023/05/15 01:39:26;;;;;;;;;47.50;40.75;;;;;16.82;51.22;101184.78;5021786;28;45266;-69
2023/05/15 01:42:02;;;;;;;;;50.50;39.50;;;;;16.77;51.32;101179.63;5021692;28;45494;-69
2023/05/15 01:44:31;;;;;;;;;44.25;38.50;;;;;16.79;51.51;101185.75;5021525;28;45349;-69
2023/05/15 01:47:06;;;;;;;;;50.50;40.75;;;;;16.76;51.32;101177.88;5020212;28;47644;-69
2023/05/15 01:49:32;;;;;;;;;49.00;40.50;;;;;16.79;51.56;101192.84;5021430;28;45501;-69
2023/05/15 01:52:07;;;;;;;;;46.25;40.00;;;;;16.75;51.47;101186.75;5020099;28;45385;-69
2023/05/15 01:54:35;;;;;;;;;52.75;43.75;;;;;16.71;51.40;101188.66;5019727;28;45549;-69
2023/05/15 01:57:01;;;;;;;;;52.50;40.75;;;;;16.67;51.62;101179.06;5021247;28;46317;-69
2023/05/15 01:59:28;;;;;;;;;53.00;42.50;;;;;16.66;51.50;101187.94;5021152;28;45360;-69
2023/05/15 02:01:55;;;;;;;;;52.50;40.25;;;;;16.61;51.44;101181.91;5030637;28;45269;-69
2023/05/15 02:04:21;;;;;;;;;50.75;42.50;;;;;16.59;51.60;101183.75;5019734;28;45494;-70
2023/05/15 02:06:49;;;;;;;;;52.75;43.00;;;;;16.52;51.92;101183.06;5020869;28;45353;-70
2023/05/15 02:09:15;;;;;;;;;56.50;43.50;;;;;16.49;51.64;101177.00;5021009;28;45321;-71
2023/05/15 02:11:41;;;;;;;;;53.75;43.25;;;;;16.47;51.62;101187.66;5021178;28;45324;-70
2023/05/15 02:14:08;;;;;;;;;52.00;42.50;;;;;16.44;51.96;101181.56;5020587;28;45622;-70
2023/05/15 02:16:34;;;;;;;;;49.25;42.25;;;;;16.42;51.68;101178.97;5020806;28;45369;-70
2023/05/15 02:19:00;;;;;;;;;50.75;40.25;;;;;16.36;51.66;101176.53;5020985;28;45230;-70
2023/05/15 02:21:25;;;;;;;;;52.00;42.50;;;;;16.40;52.01;101181.69;5019777;28;45404;-70
2023/05/15 02:23:50;;;;;;;;;53.25;42.50;;;;;16.36;52.06;101171.22;5020587;28;45444;-70
2023/05/15 02:26:35;;;;;;;;;45.75;38.50;;;;;16.37;52.04;101181.78;5020681;28;46456;-70
2023/05/15 02:29:39;;;;;;;;;57.75;44.00;;;;;16.36;52.04;101181.81;5019251;28;45249;-70
2023/05/15 02:32:16;;;;;;;;;57.25;43.25;;;;;16.33;52.20;101173.97;5004920;28;45324;-70
2023/05/15 02:34:45;;;;;;;;;55.75;43.75;;;;;16.29;52.26;101177.63;5020591;28;45237;-69
2023/05/15 02:37:17;;;;;;;;;48.00;39.75;;;;;16.27;52.13;101169.72;5020379;28;46397;-70
2023/05/15 02:39:44;;;;;;;;;51.00;41.50;;;;;16.27;51.75;101164.41;5020489;28;45308;-70
2023/05/15 02:42:12;;;;;;;;;50.50;40.25;;;;;16.27;51.74;101166.22;5020928;28;45297;-71
2023/05/15 02:44:41;;;;;;;;;55.50;44.25;;;;;16.21;52.13;101162.84;5020294;28;45401;-71
2023/05/15 02:47:07;;;;;;;;;48.00;38.25;;;;;16.22;51.97;101169.84;5020724;28;46087;-71
2023/05/15 02:49:33;;;;;;;;;53.00;44.50;;;;;16.22;51.93;101172.50;5020390;28;45175;-71
2023/05/15 02:51:58;;;;;;;;;57.75;45.00;;;;;16.18;51.99;101176.19;5020605;28;45443;-71
2023/05/15 02:54:24;;;;;;;;;49.50;42.00;;;;;16.16;52.21;101170.06;5020267;28;45430;-71
2023/05/15 02:56:50;;;;;;;;;53.25;44.00;;;;;16.14;52.44;101173.66;5020354;28;46014;-71
2023/05/15 02:59:18;;;;;;;;;56.50;45.00;;;;;16.09;52.19;101169.38;5020160;28;46083;-71
2023/05/15 03:01:45;;;;;;;;;53.75;42.75;;;;;16.05;52.09;101164.19;5029767;28;45308;-71
2023/05/15 03:04:11;;;;;;;;;54.75;44.25;;;;;15.98;52.04;101160.03;5018973;28;45332;-71
2023/05/15 03:06:36;;;;;;;;;54.25;43.25;;;;;15.97;52.03;101164.44;5020049;28;46056;-70
2023/05/15 03:09:01;;;;;;;;;58.25;44.00;;;;;15.93;52.24;101166.31;5019884;28;45245;-70
2023/05/15 03:11:26;;;;;;;;;54.75;42.25;;;;;15.89;52.30;101172.63;5019009;28;45300;-70
2023/05/15 03:13:52;;;;;;;;;58.00;43.25;;;;;15.85;51.88;101165.69;5019917;28;45542;-71
2023/05/15 03:16:17;;;;;;;;;59.00;45.50;;;;;15.81;52.50;101164.00;5020142;28;45899;-71
2023/05/15 03:18:42;;;;;;;;;50.75;42.00;;;;;15.74;52.14;101157.16;5018637;28;45179;-72
2023/05/15 03:21:08;;;;;;;;;50.75;41.25;;;;;15.70;52.31;101161.66;5020514;28;45193;-71
2023/05/15 03:23:33;;;;;;;;;54.75;42.25;;;;;15.69;52.19;101162.56;5018548;28;45561;-71
2023/05/15 03:25:58;;;;;;;;;52.75;43.00;;;;;15.65;52.34;101154.78;5018022;28;47306;-70
2023/05/15 03:28:24;;;;;;;;;54.25;42.25;;;;;15.57;52.16;101161.16;5019539;28;45248;-70
2023/05/15 03:30:49;;;;;;;;;52.75;43.75;;;;;15.56;52.55;101154.13;5020207;28;45272;-71
2023/05/15 03:33:15;;;;;;;;;51.75;41.50;;;;;15.54;52.04;101157.72;5019688;28;45547;-70
2023/05/15 03:35:40;;;;;;;;;54.75;43.75;;;;;15.50;52.73;101159.59;5018507;28;47142;-70
2023/05/15 03:38:05;;;;;;;;;54.25;44.00;;;;;15.48;52.18;101156.09;5019752;28;45371;-70
2023/05/15 03:40:30;;;;;;;;;58.75;42.25;;;;;15.44;52.59;101160.63;5019954;28;45640;-70
2023/05/15 03:42:57;;;;;;;;;58.00;45.00;;;;;15.44;52.59;101162.41;5018272;28;46138;-70
2023/05/15 03:45:22;;;;;;;;;50.00;41.00;;;;;15.43;52.21;101163.31;5019891;28;46369;-71
2023/05/15 03:47:47;;;;;;;;;54.25;42.50;;;;;15.38;52.49;101159.91;5019650;28;45290;-70
2023/05/15 03:50:14;;;;;;;;;61.00;46.00;;;;;15.37;52.57;101166.13;5020173;28;45435;-71
2023/05/15 03:52:39;;;;;;;;;56.25;45.25;;;;;15.32;52.72;101162.72;5019495;28;45354;-71
2023/05/15 03:55:05;;;;;;;;;47.25;38.75;;;;;15.27;52.79;101163.72;5019568;28;45337;-71
2023/05/15 03:57:32;;;;;;;;;53.00;40.50;;;;;15.23;52.63;101156.78;5019511;28;45195;-71
2023/05/15 03:59:57;;;;;;;;;51.75;41.00;;;;;15.20;52.70;101148.91;5022970;28;45419;-71
2023/05/15 04:02:22;;;;;;;;;55.00;43.50;;;;;15.23;52.33;101162.09;5024980;28;45249;-71
2023/05/15 04:04:48;;;;;;;;;54.50;42.50;;;;;15.22;52.76;101160.34;5019032;28;52318;-71
2023/05/15 04:07:13;;;;;;;;;52.75;43.00;;;;;15.23;52.89;101161.19;5018994;28;51120;-71
2023/05/15 04:09:38;;;;;;;;;54.50;42.75;;;;;15.22;52.70;101165.63;5019451;28;45359;-71
2023/05/15 04:12:04;;;;;;;;;51.25;42.50;;;;;15.18;52.82;101165.75;5019229;28;45569;-71
2023/05/15 04:14:29;;;;;;;;;49.75;39.00;;;;;15.19;52.71;101165.72;5019110;28;46437;-72
2023/05/15 04:16:55;;;;;;;;;45.50;38.25;;;;;15.20;52.76;101174.53;5018041;28;45994;-71
2023/05/15 04:19:20;;;;;;;;;48.25;38.50;;;;;15.18;52.89;101174.59;5018211;28;45250;-71
2023/05/15 04:21:45;;;;;;;;;51.00;40.00;;;;;15.18;52.36;101173.69;5019131;28;45384;-71
2023/05/15 04:24:11;;;;;;;;;48.75;40.25;;;;;15.16;52.74;101180.81;5017812;28;47691;-71
2023/05/15 04:26:36;;;;;;;;;47.50;38.50;;;;;15.14;52.38;101185.28;5018976;28;45354;-71
2023/05/15 04:29:02;;;;;;;;;55.50;43.25;;;;;15.10;52.69;101192.44;5019422;28;45426;-71
2023/05/15 04:31:27;;;;;;;;;49.75;40.00;;;;;15.07;52.53;101189.88;5019351;28;45421;-71
2023/05/15 04:33:52;;;;;;;;;51.75;40.50;;;;;15.03;52.76;101174.97;5019077;28;46270;-71
2023/05/15 04:36:18;;;;;;;;;50.50;37.25;;;;;15.02;52.45;101176.75;5019270;28;45438;-71
2023/05/15 04:38:43;;;;;;;;;53.00;43.25;;;;;14.98;52.50;101174.22;5021523;28;45685;-71
2023/05/15 04:41:08;;;;;;;;;48.25;38.50;;;;;14.93;52.87;101166.38;5022430;28;45237;-71
2023/05/15 04:43:34;;;;;;;;;47.00;37.50;;;;;14.94;52.66;101179.59;5022622;28;46140;-71
2023/05/15 04:45:59;;;;;;;;;45.00;37.00;;;;;14.93;52.95;101184.91;5022423;28;45162;-71
2023/05/15 04:48:25;;;;;;;;;47.50;39.25;;;;;14.83;52.61;101168.41;5022653;28;45340;-71
2023/05/15 04:50:50;;;;;;;;;52.50;40.50;;;;;14.82;52.53;101182.56;5022592;28;45475;-71
2023/05/15 04:53:16;;;;;;;;;52.25;41.25;;;;;14.82;52.72;101179.00;5022080;28;45804;-71
2023/05/15 04:55:41;;;;;;;;;50.00;41.25;;;;;14.79;52.95;101178.22;5028239;28;45406;-71
2023/05/15 04:58:06;;;;;;;;;49.75;40.75;;;;;14.77;53.02;101179.16;5022234;28;45331;-72
2023/05/15 05:00:31;;;;;;;;;50.00;39.00;;;;;14.75;52.66;101175.66;5030117;28;45308;-70
2023/05/15 05:02:57;;;;;;;;;53.75;41.75;;;;;14.72;52.78;101175.75;5022569;28;47980;-70
2023/05/15 05:05:22;;;;;;;;;53.75;43.25;;;;;14.65;52.53;101172.38;5020556;28;45273;-70
2023/05/15 05:07:50;;;;;;;;;54.75;42.25;;;;;14.65;53.29;101168.88;5021874;28;45567;-70
2023/05/15 05:10:15;;;;;;;;;52.25;41.75;;;;;14.64;53.00;101170.63;5020354;28;45779;-71
2023/05/15 05:12:41;;;;;;;;;50.75;40.00;;;;;14.61;53.15;101171.53;5021567;28;45581;-70
2023/05/15 05:15:07;;;;;;;;;50.50;40.00;;;;;14.57;52.86;101161.94;5022190;28;45315;-71
2023/05/15 05:17:32;;;;;;;;;49.50;37.50;;;;;14.58;52.92;101165.47;5020746;28;45272;-71
2023/05/15 05:19:57;;;;;;;;;52.25;41.25;;;;;14.56;53.26;101165.50;5022017;28;45281;-71
2023/05/15 05:22:23;;;;;;;;;49.00;40.00;;;;;14.57;52.79;101171.66;5021530;28;45384;-71
2023/05/15 05:24:48;;;;;;;;;50.25;40.00;;;;;14.56;53.13;101162.00;5020418;28;45466;-71
2023/05/15 05:27:13;;;;;;;;;54.00;42.75;;;;;14.58;53.03;101168.97;5021621;28;45238;-71
2023/05/15 05:29:39;;;;;;;;;48.75;39.25;;;;;14.59;53.08;101167.19;5019728;28;45640;-71
2023/05/15 05:32:06;;;;;;;;;51.25;39.75;;;;;14.60;52.96;101164.53;5021261;28;45236;-71
2023/05/15 05:34:31;;;;;;;;;51.25;39.75;;;;;14.64;52.92;101170.63;5021745;28;45147;-71
2023/05/15 05:36:56;;;;;;;;;57.00;44.00;;;;;14.67;52.91;101170.56;5021046;28;45368;-71
2023/05/15 05:39:22;;;;;;;;;43.75;34.75;;;;;14.70;52.67;101177.56;5021500;28;49620;-72
2023/05/15 05:41:47;;;;;;;;;48.75;39.25;;;;;14.74;52.84;101173.91;5021262;28;51232;-72
2023/05/15 05:44:12;;;;;;;;;46.50;38.75;;;;;14.72;52.94;101173.09;5021501;28;45240;-71
2023/05/15 05:46:38;;;;;;;;;54.25;41.25;;;;;14.77;53.06;101168.56;5021535;28;45237;-67
2023/05/15 05:49:03;;;;;;;;;48.50;39.75;;;;;14.80;53.03;101171.13;5021274;28;45646;-74
2023/05/15 05:51:30;;;;;;;;;38.00;32.00;;;;;14.77;53.24;101169.44;5019500;28;47151;-77
2023/05/15 05:53:55;;;;;;;;;51.50;39.50;;;;;14.77;53.19;101169.44;5021069;28;45528;-78
2023/05/15 05:56:21;;;;;;;;;53.50;41.50;;;;;14.77;52.76;101177.34;5021198;28;45293;-69
2023/05/15 05:58:46;;;;;;;;;50.50;39.75;;;;;14.79;52.79;101183.50;5021330;28;45487;-68
2023/05/15 06:01:12;;;;;;;;;57.00;42.50;;;;;14.81;52.85;101185.25;5030606;28;45287;-68
2023/05/15 06:03:38;;;;;;;;;49.75;39.00;;;;;14.82;52.97;101181.66;5020003;28;45325;-69
2023/05/15 06:06:03;;;;;;;;;50.00;38.50;;;;;14.82;52.89;101179.00;5020027;28;45490;-69
2023/05/15 06:08:29;;;;;;;;;52.50;43.00;;;;;14.85;52.82;101174.53;5020876;28;45488;-70
2023/05/15 06:10:54;;;;;;;;;50.00;41.25;;;;;14.89;52.91;101180.59;5019465;28;47930;-69
2023/05/15 06:13:20;;;;;;;;;50.25;41.25;;;;;14.87;52.73;101180.66;5020941;28;45172;-70
2023/05/15 06:15:46;;;;;;;;;49.00;40.00;;;;;14.93;53.30;101191.09;5021050;28;45511;-69
2023/05/15 06:18:11;;;;;;;;;53.75;41.50;;;;;14.90;53.07;101191.16;5020668;28;45176;-71
2023/05/15 06:20:37;;;;;;;;;49.50;40.75;;;;;14.92;53.20;101197.28;5020874;28;45344;-71
2023/05/15 06:23:02;;;;;;;;;50.50;41.50;;;;;14.97;53.46;101196.28;5020841;28;45239;-70
2023/05/15 06:25:28;;;;;;;;;48.25;38.50;;;;;14.99;53.43;101199.78;5020864;28;45153;-76
2023/05/15 06:27:54;;;;;;;;;47.00;37.75;;;;;15.00;53.23;101197.09;5021223;28;45519;-75
2023/05/15 06:30:20;;;;;;;;;45.50;38.00;;;;;15.04;53.21;101204.06;5021780;28;48022;-66
2023/05/15 06:32:45;;;;;;;;;52.25;41.25;;;;;15.05;53.11;101203.13;5020815;28;45301;-75
2023/05/15 06:35:10;;;;;;;;;54.00;41.50;;;;;15.06;53.36;101204.00;5020766;28;45266;-75
2023/05/15 06:37:36;;;;;;;;;52.25;40.50;;;;;15.08;53.06;101202.19;5019212;28;45352;-74
2023/05/15 06:40:03;;;;;;;;;50.00;39.50;;;;;15.10;53.23;101203.88;5019691;28;45428;-73
2023/05/15 06:42:28;;;;;;;;;47.50;39.25;;;;;15.14;53.06;101194.06;5018470;28;45671;-74
2023/05/15 06:44:54;;;;;;;;;56.25;43.00;;;;;15.15;53.33;101198.47;5020033;28;45422;-73
2023/05/15 06:47:19;;;;;;;;;51.00;42.25;;;;;15.15;53.51;101194.97;5018684;28;45507;-74
2023/05/15 06:49:44;;;;;;;;;49.25;39.75;;;;;15.19;53.47;101197.47;5019643;28;45498;-75
2023/05/15 06:52:10;;;;;;;;;49.25;39.50;;;;;15.22;52.98;101208.00;5019816;28;45421;-75
2023/05/15 06:54:35;;;;;;;;;48.00;39.75;;;;;15.25;53.12;101199.97;5018545;28;45485;-75
2023/05/15 06:57:01;;;;;;;;;38.00;32.25;;;;;15.28;53.07;101197.25;5019072;28;45653;-74
2023/05/15 06:59:26;;;;;;;;;43.75;35.50;;;;;15.30;52.98;101199.00;5020317;28;46300;-70
2023/05/15 07:01:52;;;;;;;;;43.75;37.00;;;;;15.34;53.63;101195.34;5013888;28;45486;-72
2023/05/15 07:04:18;;;;;;;;;52.25;40.50;;;;;15.35;53.12;101194.44;5019904;28;45362;-71
2023/05/15 07:06:43;;;;;;;;;50.75;36.50;;;;;15.38;53.48;101194.34;5019685;28;45447;-71
2023/05/15 07:09:08;;;;;;;;;48.25;38.00;;;;;15.40;53.60;101196.03;5019986;28;45281;-72
2023/05/15 07:11:36;;;;;;;;;49.25;37.25;;;;;15.44;53.22;101196.81;5019898;28;45513;-71
2023/05/15 07:14:02;;;;;;;;;57.25;45.00;;;;;15.46;53.63;101194.13;5020150;28;45395;-70
2023/05/15 07:16:27;;;;;;;;;55.50;42.50;;;;;15.50;53.79;101195.81;5019672;28;45320;-70
2023/05/15 07:18:53;;;;;;;;;52.25;38.25;;;;;15.52;53.64;101193.97;5034011;28;47272;-71
2023/05/15 07:21:18;;;;;;;;;45.75;35.75;;;;;15.56;53.40;101196.50;5018515;28;45815;-72
2023/05/15 07:23:44;;;;;;;;;62.00;49.00;;;;;15.59;53.89;101198.19;5018626;28;45437;-72
2023/05/15 07:26:09;;;;;;;;;50.25;41.25;;;;;15.63;53.82;101193.69;5018494;28;45550;-74
2023/05/15 07:28:34;;;;;;;;;53.50;41.25;;;;;15.66;53.87;101193.56;5029542;28;46313;-71
2023/05/15 07:31:00;;;;;;;;;46.00;37.00;;;;;15.68;53.94;101194.41;5019737;28;45170;-67
2023/05/15 07:33:25;;;;;;;;;54.25;42.25;;;;;15.67;53.63;101188.25;5019983;28;45328;-67
2023/05/15 07:35:50;;;;;;;;;48.00;41.75;;;;;15.73;53.85;101187.19;5022116;28;45551;-67
2023/05/15 07:38:17;;;;;;;;;53.00;43.00;;;;;15.72;54.11;101178.41;5018179;28;45884;-67
2023/05/15 07:40:42;;;;;;;;;51.25;41.25;;;;;15.73;53.92;101172.16;5018357;28;46523;-67
2023/05/15 07:43:07;;;;;;;;;36.50;33.25;;;;;15.77;53.95;101175.59;5019970;28;45321;-67
2023/05/15 07:45:33;;;;;;;;;48.25;41.25;;;;;15.83;53.78;101180.75;5018822;28;56591;-67
2023/05/15 07:48:15;;;;;;;;;48.25;37.50;;;;;15.86;54.09;101182.44;5019928;28;45162;-67
2023/05/15 07:50:40;;;;;;;;;50.50;38.75;;;;;15.89;54.15;101183.22;5019598;28;45209;-67
2023/05/15 07:53:06;;;;;;;;;50.75;41.25;;;;;15.91;53.69;101178.75;5018249;28;45499;-68
2023/05/15 07:55:31;;;;;;;;;49.00;40.00;;;;;15.95;53.71;101183.94;5019612;28;45300;-67
2023/05/15 07:57:56;;;;;;;;;44.75;36.50;;;;;15.98;54.01;101181.22;5019649;28;45497;-67
2023/05/15 08:00:22;;;;;;;;;42.25;36.75;;;;;16.00;54.01;101185.56;5017307;28;45289;-68
2023/05/15 08:02:47;;;;;;;;;49.25;40.00;;;;;16.07;54.28;101180.94;5013267;28;45285;-67
2023/05/15 08:05:13;;;;;;;;;49.50;39.00;;;;;16.10;53.83;101180.88;5019254;28;45720;-67
2023/05/15 08:07:38;;;;;;;;;50.50;40.75;;;;;16.07;54.27;101171.22;5019244;28;46160;-67
2023/05/15 08:10:04;;;;;;;;;50.00;39.00;;;;;16.17;54.29;101182.38;5022697;28;46532;-68
2023/05/15 08:12:30;;;;;;;;;51.25;39.00;;;;;16.21;54.23;101177.88;5019745;28;45509;-68
2023/05/15 08:14:55;;;;;;;;;54.25;44.00;;;;;16.24;53.95;101177.78;5022398;28;45571;-67
2023/05/15 08:17:22;;;;;;;;;54.50;43.00;;;;;16.26;54.10;101189.19;5022923;28;46111;-67
2023/05/15 08:19:48;;;;;;;;;47.75;39.25;;;;;16.27;54.00;101190.09;5022767;28;45343;-66
2023/05/15 08:22:13;;;;;;;;;55.75;43.50;;;;;16.25;54.28;101191.00;5022780;28;45468;-66
2023/05/15 08:24:39;;;;;;;;;58.50;45.00;;;;;16.23;54.06;101184.84;5022430;28;45486;-67
2023/05/15 08:27:06;;;;;;;;;51.50;40.50;;;;;16.25;54.10;101172.44;5022372;28;46409;-66
2023/05/15 08:29:32;;;;;;;;;44.50;34.50;;;;;16.29;54.08;101186.47;5022571;28;45439;-66
2023/05/15 08:31:57;;;;;;;;;53.00;39.25;;;;;16.31;54.24;101181.09;5021259;28;45245;-67
2023/05/15 08:34:23;;;;;;;;;46.75;38.75;;;;;16.29;54.38;101178.50;5022278;28;45222;-66
2023/05/15 08:36:49;;;;;;;;;46.00;34.75;;;;;16.32;54.58;101173.09;5022478;28;45475;-66
2023/05/15 08:39:14;;;;;;;;;49.50;38.50;;;;;16.31;54.08;101167.84;5022350;28;45387;-66
2023/05/15 08:41:50;;;;;;;;;49.00;40.50;;;;;16.32;54.06;101169.59;5017103;28;45549;-68
2023/05/15 08:44:16;;;;;;;;;48.75;36.25;;;;;16.36;54.35;101172.09;5022210;28;45244;-67
2023/05/15 08:46:42;;;;;;;;;41.75;35.50;;;;;16.36;54.43;101176.53;5020926;28;45581;-68
2023/05/15 08:49:18;;;;;;;;;45.25;33.50;;;;;16.40;54.33;101178.16;5021315;28;45475;-69
2023/05/15 08:51:44;;;;;;;;;41.25;33.75;;;;;16.37;54.58;101172.97;5022177;28;45277;-69
2023/05/15 08:54:10;;;;;;;;;46.75;37.75;;;;;16.39;54.13;101179.09;5022225;28;45349;-69
2023/05/15 08:56:36;;;;;;;;;46.75;36.50;;;;;16.42;54.09;101174.53;5022060;28;46228;-69
2023/05/15 08:59:02;;;;;;;;;46.00;37.75;;;;;16.45;54.53;101176.22;5021909;28;45425;-69
2023/05/15 09:01:28;;;;;;;;;45.50;38.00;;;;;16.48;54.24;101180.59;5004701;28;45485;-69
2023/05/15 09:03:53;;;;;;;;;40.75;35.00;;;;;16.45;54.45;101176.22;5022099;28;45256;-69
2023/05/15 09:06:19;;;;;;;;;37.75;32.00;;;;;16.48;54.36;101170.84;5021922;28;45334;-69
2023/05/15 09:08:46;;;;;;;;;49.00;40.00;;;;;16.51;54.47;101177.81;5022004;28;45412;-69
2023/05/15 09:11:12;;;;;;;;;39.75;33.00;;;;;16.53;54.74;101171.53;5020904;28;45282;-69
2023/05/15 09:13:38;;;;;;;;;34.75;31.25;;;;;16.55;54.55;101167.06;5021816;28;45681;-69
2023/05/15 09:16:03;;;;;;;;;45.25;35.25;;;;;16.60;54.55;101176.66;5022145;28;46105;-69
2023/05/15 09:18:31;;;;;;;;;33.75;30.75;;;;;16.62;54.46;101165.06;5022078;28;45323;-69
2023/05/15 09:21:26;;;;;;;;;35.50;31.75;;;;;16.70;54.57;101170.13;5022264;28;45236;-69
2023/05/15 09:23:53;;;;;;;;;41.25;34.00;;;;;16.70;54.70;101165.72;5021676;28;45508;-69
2023/05/15 09:26:20;;;;;;;;;42.75;33.75;;;;;16.76;54.68;101172.56;5021181;28;45495;-69
2023/05/15 09:28:45;;;;;;;;;43.75;35.75;;;;;16.80;54.24;101173.34;5022354;28;45419;-69
2023/05/15 09:31:11;;;;;;;;;38.75;32.00;;;;;16.84;54.71;101167.91;5021796;28;45304;-69
2023/05/15 09:33:38;;;;;;;;;40.50;33.00;;;;;16.85;54.45;101164.28;5021721;28;45427;-69
2023/05/15 09:36:06;;;;;;;;;44.75;33.75;;;;;16.87;54.67;101157.16;5021626;28;46205;-70
2023/05/15 09:38:32;;;;;;;;;40.25;32.75;;;;;16.94;54.56;101160.50;5021691;28;45298;-69
2023/05/15 09:41:06;;;;;;;;;40.25;33.50;;;;;16.99;54.70;101166.53;5021522;28;45221;-69
2023/05/15 09:43:38;;;;;;;;;41.50;33.00;;;;;17.03;54.67;101168.16;5021760;28;45182;-70
2023/05/15 09:46:05;;;;;;;;;43.75;34.25;;;;;17.03;54.48;101168.16;5021470;28;46194;-69
2023/05/15 09:48:31;;;;;;;;;45.75;34.50;;;;;17.09;54.71;101168.88;5021713;28;45288;-69
2023/05/15 09:50:57;;;;;;;;;43.00;34.75;;;;;17.14;54.71;101167.78;5021626;28;45337;-70
2023/05/15 09:53:23;;;;;;;;;36.00;32.00;;;;;17.18;54.86;101165.88;5020114;28;45278;-70
2023/05/15 09:55:49;;;;;;;;;41.25;33.50;;;;;17.22;54.78;101164.88;5021362;28;45308;-68
2023/05/15 09:58:16;;;;;;;;;45.25;35.50;;;;;17.27;54.70;101170.00;5020173;28;45765;-68
2023/05/15 10:00:43;;;;;;;;;42.25;34.75;;;;;17.29;54.50;101165.50;5027341;28;45418;-68
2023/05/15 10:03:10;;;;;;;;;32.75;32.00;;;;;17.32;54.89;101163.63;5020066;28;45550;-68
2023/05/15 10:05:36;;;;;;;;;37.50;34.50;;;;;17.38;54.64;101165.19;5019974;28;46404;-68
2023/05/15 10:08:05;;;;;;;;;39.50;32.75;;;;;17.46;54.65;101168.44;5020984;28;45719;-70
2023/05/15 10:10:31;;;;;;;;;50.25;41.25;;;;;17.50;54.61;101172.72;5020040;28;45337;-68
2023/05/15 10:13:00;;;;;;;;;49.00;38.25;;;;;17.54;54.65;101178.78;5020832;28;45352;-68
2023/05/15 10:15:27;;;;;;;;;47.75;38.50;;;;;17.59;54.65;101176.81;5021019;28;46839;-68
2023/05/15 10:17:53;;;;;;;;;40.00;35.00;;;;;17.62;54.58;101176.72;5019699;28;45286;-68
2023/05/15 10:20:20;;;;;;;;;44.50;34.75;;;;;17.66;54.49;101178.34;5021241;28;45241;-68
2023/05/15 10:22:49;;;;;;;;;43.00;33.50;;;;;17.67;54.63;101173.88;5019270;28;45514;-70
2023/05/15 10:25:25;;;;;;;;;47.25;35.00;;;;;17.72;54.78;101169.25;5019066;28;46803;-68
2023/05/15 10:27:52;;;;;;;;;42.50;34.75;;;;;17.76;54.67;101184.19;5020867;28;45265;-69
2023/05/15 10:30:18;;;;;;;;;34.75;32.00;;;;;17.78;54.60;101169.03;5021042;28;45289;-68
2023/05/15 10:32:44;;;;;;;;;42.75;34.50;;;;;17.80;54.77;101175.16;5020663;28;45471;-68
2023/05/15 10:35:10;;;;;;;;;46.25;36.00;;;;;17.83;54.76;101172.38;5020881;28;46216;-68
2023/05/15 10:37:37;;;;;;;;;44.00;35.75;;;;;17.87;54.36;101175.78;5020247;28;45440;-68
2023/05/15 10:40:07;;;;;;;;;41.50;33.25;;;;;17.89;54.32;101173.09;5020897;28;45343;-68
2023/05/15 10:42:34;;;;;;;;;47.50;37.75;;;;;17.91;54.48;101165.91;5019195;28;46132;-68
2023/05/15 10:45:01;;;;;;;;;40.00;34.00;;;;;17.93;54.36;101158.75;5020676;28;46276;-68
2023/05/15 10:47:30;;;;;;;;;47.75;37.00;;;;;17.97;54.38;101166.56;5020482;28;45305;-68
2023/05/15 10:49:56;;;;;;;;;42.75;34.75;;;;;18.01;54.54;101164.66;5019631;28;45276;-68
2023/05/15 10:52:22;;;;;;;;;39.75;33.75;;;;;18.00;54.34;101162.94;5018847;28;45624;-70
2023/05/15 10:54:48;;;;;;;;;47.25;38.00;;;;;18.03;54.40;101162.81;5020324;28;45245;-68
2023/05/15 10:57:14;;;;;;;;;46.50;37.50;;;;;18.08;54.51;101167.97;5020262;28;45366;-68
2023/05/15 10:59:40;;;;;;;;;52.00;40.25;;;;;18.07;54.94;101158.25;5021312;28;45523;-68
2023/05/15 11:02:23;;;;;;;;;42.25;33.25;;;;;18.11;54.38;101163.41;5020587;28;45568;-68
2023/05/15 11:04:56;;;;;;;;;50.00;39.50;;;;;18.15;54.64;101157.03;5020009;28;45576;-68
2023/05/15 11:07:23;;;;;;;;;48.75;38.75;;;;;18.17;54.45;101164.94;5020284;28;45281;-68